Time;durP1;ratioP1;P1;durP2;ratioP2;P2;SDS_P1;SDS_P2;PMS_P1;PMS_P2;Temp;Humidity;BMP_temperature;BMP_pressure;BME280_temperature;BME280_humidity;BME280_pressure;Samples;Min_cycle;Max_cycle;Signal;HPM_P1;HPM_P2
2022/05/13 00:01:55;;;;;;;26.90;4.90;;;;;;;;;;4921878;28;20532;-70
2022/05/13 00:04:22;;;;;;;33.45;5.32;;;;;;;;;;4923157;29;20056;-70
2022/05/13 00:06:49;;;;;;;22.65;5.18;;;;;;;;;;4923641;28;20055;-70
2022/05/13 00:09:16;;;;;;;31.38;5.10;;;;;;;;;;4920773;29;20063;-70
2022/05/13 00:11:44;;;;;;;31.08;5.57;;;;;;;;;;4923072;28;20098;-70
2022/05/13 00:14:12;;;;;;;31.25;5.85;;;;;;;;;;4925415;29;20059;-70
2022/05/13 00:16:39;;;;;;;28.98;5.25;;;;;;;;;;4924717;28;20058;-70
2022/05/13 00:19:10;;;;;;;33.78;5.70;;;;;;;;;;4931246;29;20114;-70
2022/05/13 00:21:38;;;;;;;27.08;5.13;;;;;;;;;;4922672;29;21265;-70
2022/05/13 00:24:05;;;;;;;32.13;5.32;;;;;;;;;;4921635;29;20114;-70
2022/05/13 00:26:32;;;;;;;32.65;6.47;;;;;;;;;;4920044;28;20550;-70
2022/05/13 00:29:00;;;;;;;35.33;6.10;;;;;;;;;;4921209;29;20047;-70
2022/05/13 00:31:28;;;;;;;30.98;6.85;;;;;;;;;;4922870;29;20051;-70
2022/05/13 00:33:55;;;;;;;31.67;5.78;;;;;;;;;;4927992;29;20055;-70
2022/05/13 00:36:24;;;;;;;37.40;6.18;;;;;;;;;;4924724;28;20080;-70
2022/05/13 00:38:51;;;;;;;32.28;5.63;;;;;;;;;;4923165;29;20055;-70
2022/05/13 00:41:18;;;;;;;36.28;5.85;;;;;;;;;;4919339;29;20063;-70
2022/05/13 00:43:47;;;;;;;30.55;5.53;;;;;;;;;;4928970;29;20081;-70
2022/05/13 00:46:14;;;;;;;35.08;5.85;;;;;;;;;;4922402;29;20047;-70
2022/05/13 00:48:42;;;;;;;31.48;6.07;;;;;;;;;;4923969;29;20055;-70
2022/05/13 00:51:11;;;;;;;34.80;5.57;;;;;;;;;;4923448;29;20055;-70
2022/05/13 00:53:40;;;;;;;32.00;5.47;;;;;;;;;;4917061;29;20048;-70
2022/05/13 00:56:08;;;;;;;32.63;5.55;;;;;;;;;;4917008;29;20063;-70
2022/05/13 00:58:36;;;;;;;39.28;6.47;;;;;;;;;;4922192;29;20043;-70
2022/05/13 01:01:03;;;;;;;32.35;6.10;;;;;;;;;;4915703;29;20507;-70
2022/05/13 01:03:31;;;;;;;32.08;6.00;;;;;;;;;;4916027;29;20132;-70
2022/05/13 01:06:00;;;;;;;35.20;6.10;;;;;;;;;;4917872;29;20115;-70
2022/05/13 01:08:31;;;;;;;37.25;6.57;;;;;;;;;;4916838;29;20455;-70
2022/05/13 01:11:00;;;;;;;37.67;6.15;;;;;;;;;;4918483;29;20047;-70
2022/05/13 01:13:29;;;;;;;34.22;5.93;;;;;;;;;;4921825;29;20064;-70
2022/05/13 01:15:57;;;;;;;31.90;6.03;;;;;;;;;;4916109;29;20633;-70
2022/05/13 01:18:28;;;;;;;26.48;5.15;;;;;;;;;;4914336;29;20079;-70
2022/05/13 01:20:55;;;;;;;39.25;6.78;;;;;;;;;;4916714;29;20488;-70
2022/05/13 01:23:24;;;;;;;37.30;6.65;;;;;;;;;;4922805;29;20059;-70
2022/05/13 01:25:56;;;;;;;32.80;5.78;;;;;;;;;;4920927;29;20075;-70
2022/05/13 01:28:24;;;;;;;27.05;5.75;;;;;;;;;;4916010;29;21352;-70
2022/05/13 01:30:53;;;;;;;29.48;5.85;;;;;;;;;;4912663;29;20055;-70
2022/05/13 01:33:21;;;;;;;33.72;5.72;;;;;;;;;;4916792;29;20067;-70
2022/05/13 01:35:51;;;;;;;42.38;6.95;;;;;;;;;;4917699;29;20055;-70
2022/05/13 01:38:18;;;;;;;28.40;5.78;;;;;;;;;;4923502;29;20047;-70
2022/05/13 01:40:47;;;;;;;34.20;5.93;;;;;;;;;;4916327;29;20639;-70
2022/05/13 01:43:14;;;;;;;30.60;5.75;;;;;;;;;;4918623;29;20059;-70
2022/05/13 01:45:42;;;;;;;27.80;5.75;;;;;;;;;;4916917;29;20051;-70
2022/05/13 01:48:09;;;;;;;31.98;6.13;;;;;;;;;;4918894;29;20111;-70
2022/05/13 01:50:37;;;;;;;31.45;5.63;;;;;;;;;;4917256;29;20071;-70
2022/05/13 01:53:04;;;;;;;28.35;5.32;;;;;;;;;;4916521;29;20079;-70
2022/05/13 01:55:32;;;;;;;38.45;5.40;;;;;;;;;;4919436;29;20055;-70
2022/05/13 01:58:01;;;;;;;24.63;5.18;;;;;;;;;;4882749;29;1111882;-70
2022/05/13 02:00:28;;;;;;;29.35;6.68;;;;;;;;;;4919255;29;20055;-70
2022/05/13 02:05:40;;;;;;;28.65;5.07;;;;;;;;;;4922050;29;20150;-70
2022/05/13 02:08:07;;;;;;;33.30;5.93;;;;;;;;;;4916369;29;20098;-70
2022/05/13 02:10:35;;;;;;;29.00;5.22;;;;;;;;;;4915251;29;20067;-70
2022/05/13 02:13:03;;;;;;;33.90;6.15;;;;;;;;;;4919108;29;20142;-70
2022/05/13 02:15:31;;;;;;;29.60;6.30;;;;;;;;;;4919544;29;21216;-70
2022/05/13 02:17:58;;;;;;;33.10;5.50;;;;;;;;;;4914835;29;20059;-70
2022/05/13 02:20:25;;;;;;;33.35;5.72;;;;;;;;;;4914925;29;20056;-70
2022/05/13 02:22:52;;;;;;;31.02;6.35;;;;;;;;;;4914280;29;20055;-70
2022/05/13 02:25:19;;;;;;;25.63;6.20;;;;;;;;;;4914541;29;20149;-70
2022/05/13 02:27:47;;;;;;;24.95;5.65;;;;;;;;;;4914409;29;20059;-70
2022/05/13 02:30:16;;;;;;;35.75;6.72;;;;;;;;;;4915044;29;20043;-70
2022/05/13 02:32:43;;;;;;;32.75;6.32;;;;;;;;;;4914013;29;20099;-70
2022/05/13 02:35:11;;;;;;;33.25;6.35;;;;;;;;;;4914022;29;20463;-70
2022/05/13 02:37:38;;;;;;;30.58;6.60;;;;;;;;;;4911976;29;20491;-70
2022/05/13 02:40:06;;;;;;;34.28;6.80;;;;;;;;;;4916599;29;20039;-70
2022/05/13 02:42:33;;;;;;;29.30;6.38;;;;;;;;;;4915782;29;20060;-70
2022/05/13 02:45:00;;;;;;;28.75;5.65;;;;;;;;;;4911103;29;20047;-70
2022/05/13 02:47:29;;;;;;;24.58;5.40;;;;;;;;;;4914432;29;20103;-70
2022/05/13 02:52:37;;;;;;;31.95;6.32;;;;;;;;;;4916695;29;20051;-70
2022/05/13 02:55:04;;;;;;;23.40;5.03;;;;;;;;;;4916083;29;20059;-70
2022/05/13 02:57:32;;;;;;;28.80;4.82;;;;;;;;;;4920202;29;20059;-70
2022/05/13 02:59:59;;;;;;;27.60;6.00;;;;;;;;;;4920703;29;20059;-70
2022/05/13 03:02:27;;;;;;;26.83;5.03;;;;;;;;;;4917192;29;20052;-70
2022/05/13 03:04:55;;;;;;;28.23;4.93;;;;;;;;;;4911338;29;20107;-70
2022/05/13 03:07:22;;;;;;;31.17;5.00;;;;;;;;;;4916383;29;20830;-70
2022/05/13 03:09:50;;;;;;;24.13;4.25;;;;;;;;;;4920200;29;20090;-70
2022/05/13 03:12:17;;;;;;;25.30;5.07;;;;;;;;;;4922339;29;20052;-70
2022/05/13 03:14:44;;;;;;;25.65;4.60;;;;;;;;;;4923712;29;20052;-70
2022/05/13 03:17:12;;;;;;;26.63;4.55;;;;;;;;;;4924813;29;20154;-70
2022/05/13 03:19:40;;;;;;;25.15;4.70;;;;;;;;;;4920265;29;20514;-70
2022/05/13 03:22:08;;;;;;;22.50;4.38;;;;;;;;;;4925347;29;20075;-70
2022/05/13 03:24:36;;;;;;;19.80;4.63;;;;;;;;;;4919232;29;20128;-70
2022/05/13 03:27:04;;;;;;;13.43;3.50;;;;;;;;;;4922568;29;20047;-70
2022/05/13 03:29:31;;;;;;;17.20;3.83;;;;;;;;;;4923552;29;20051;-70
2022/05/13 03:31:59;;;;;;;17.70;3.78;;;;;;;;;;4924310;29;20063;-70
2022/05/13 03:34:26;;;;;;;18.00;3.63;;;;;;;;;;4921692;29;20060;-70
2022/05/13 03:36:54;;;;;;;16.08;3.40;;;;;;;;;;4916280;29;20056;-70
2022/05/13 03:39:23;;;;;;;18.17;3.65;;;;;;;;;;4916614;29;20076;-70
2022/05/13 03:41:50;;;;;;;15.90;3.13;;;;;;;;;;4922274;29;20052;-70
2022/05/13 03:44:18;;;;;;;21.15;3.35;;;;;;;;;;4918459;29;20066;-70
2022/05/13 03:46:45;;;;;;;15.88;2.65;;;;;;;;;;4916880;29;20076;-70
2022/05/13 03:49:12;;;;;;;12.80;2.78;;;;;;;;;;4920241;29;20052;-70
2022/05/13 03:51:40;;;;;;;18.58;3.15;;;;;;;;;;4923817;29;20448;-70
2022/05/13 03:54:07;;;;;;;15.02;2.28;;;;;;;;;;4918363;29;20064;-70
2022/05/13 03:56:36;;;;;;;10.15;2.55;;;;;;;;;;4919976;29;20131;-70
2022/05/13 03:59:03;;;;;;;12.43;2.42;;;;;;;;;;4920233;29;20128;-70
2022/05/13 04:01:30;;;;;;;11.75;2.60;;;;;;;;;;4915834;29;20070;-70
2022/05/13 04:03:57;;;;;;;12.88;2.35;;;;;;;;;;4920186;29;20119;-70
2022/05/13 04:09:10;;;;;;;13.25;2.35;;;;;;;;;;4920792;29;21255;-70
2022/05/13 04:11:40;;;;;;;9.80;2.20;;;;;;;;;;4916469;29;20114;-70
2022/05/13 04:16:52;;;;;;;12.93;2.13;;;;;;;;;;4918315;29;20065;-70
2022/05/13 04:19:20;;;;;;;12.18;2.58;;;;;;;;;;4921163;29;20062;-70
2022/05/13 04:21:47;;;;;;;17.60;3.30;;;;;;;;;;4921975;29;20060;-70
2022/05/13 04:24:16;;;;;;;9.80;2.30;;;;;;;;;;4926683;29;20059;-70
2022/05/13 04:26:45;;;;;;;7.93;1.90;;;;;;;;;;4928784;29;20058;-70
2022/05/13 04:29:12;;;;;;;16.33;2.25;;;;;;;;;;4929703;29;20051;-70
2022/05/13 04:31:41;;;;;;;13.15;2.30;;;;;;;;;;4930397;29;20047;-70
2022/05/13 04:34:09;;;;;;;12.70;2.42;;;;;;;;;;4924817;29;20063;-70
2022/05/13 04:36:37;;;;;;;7.07;1.67;;;;;;;;;;4932047;29;20059;-70
2022/05/13 04:39:04;;;;;;;7.30;1.85;;;;;;;;;;4924736;29;20844;-70
2022/05/13 04:44:18;;;;;;;13.52;2.47;;;;;;;;;;4929477;29;20119;-70
2022/05/13 04:46:46;;;;;;;11.93;2.15;;;;;;;;;;4932479;29;20078;-70
2022/05/13 04:49:13;;;;;;;12.55;2.78;;;;;;;;;;4929065;29;20050;-70
2022/05/13 04:51:41;;;;;;;9.30;1.90;;;;;;;;;;4929469;29;20147;-70
2022/05/13 04:54:08;;;;;;;7.32;1.45;;;;;;;;;;4929827;29;20545;-70
2022/05/13 04:56:36;;;;;;;9.90;2.00;;;;;;;;;;4929059;29;20055;-70
2022/05/13 04:59:03;;;;;;;8.13;1.73;;;;;;;;;;4927284;29;20056;-70
2022/05/13 05:01:32;;;;;;;11.32;2.13;;;;;;;;;;4922692;29;20051;-70
2022/05/13 05:03:59;;;;;;;8.27;2.10;;;;;;;;;;4928183;29;20051;-70
2022/05/13 05:06:26;;;;;;;13.50;2.22;;;;;;;;;;4923708;29;20043;-70
2022/05/13 05:08:56;;;;;;;10.35;1.98;;;;;;;;;;4924513;29;20123;-70
2022/05/13 05:11:23;;;;;;;12.15;2.30;;;;;;;;;;4915891;29;20504;-70
2022/05/13 05:13:52;;;;;;;15.85;2.42;;;;;;;;;;4919481;29;20103;-70
2022/05/13 05:16:22;;;;;;;9.85;2.35;;;;;;;;;;4923419;29;20047;-70
2022/05/13 05:18:50;;;;;;;6.38;1.58;;;;;;;;;;4932355;29;20063;-70
2022/05/13 05:21:18;;;;;;;9.32;2.10;;;;;;;;;;4923521;29;20052;-70
2022/05/13 05:23:45;;;;;;;11.95;2.00;;;;;;;;;;4922451;29;20063;-70
2022/05/13 05:26:13;;;;;;;14.50;2.67;;;;;;;;;;4920101;29;20065;-70
2022/05/13 05:28:40;;;;;;;11.20;2.30;;;;;;;;;;4919033;29;20043;-70
2022/05/13 05:31:08;;;;;;;10.32;2.08;;;;;;;;;;4917606;29;20102;-70
2022/05/13 05:33:37;;;;;;;8.05;2.00;;;;;;;;;;4924378;29;20060;-70
2022/05/13 05:36:06;;;;;;;8.38;1.70;;;;;;;;;;4919784;29;20060;-70
2022/05/13 05:38:33;;;;;;;11.52;2.38;;;;;;;;;;4924383;29;20052;-70
2022/05/13 05:41:01;;;;;;;17.52;2.83;;;;;;;;;;4926365;29;20095;-70
2022/05/13 05:43:28;;;;;;;13.32;2.58;;;;;;;;;;4918289;29;20139;-70
2022/05/13 05:45:55;;;;;;;13.10;2.42;;;;;;;;;;4918816;29;20060;-70
2022/05/13 05:48:23;;;;;;;8.73;2.15;;;;;;;;;;4922564;29;20052;-70
2022/05/13 05:50:51;;;;;;;9.00;1.95;;;;;;;;;;4923406;29;20058;-70
2022/05/13 05:57:13;;;;;;;11.85;2.30;;;;;;;;;;4922496;29;20051;-70
2022/05/13 05:58:54;;;;;;;8.43;1.83;;;;;;;;;;4921479;29;20199;-70
2022/05/13 06:01:21;;;;;;;15.60;2.55;;;;;;;;;;4901994;29;20044;-70
2022/05/13 06:03:48;;;;;;;13.90;2.58;;;;;;;;;;4903863;29;20876;-70
2022/05/13 06:06:16;;;;;;;12.93;2.22;;;;;;;;;;4900817;29;20056;-70
2022/05/13 06:08:45;;;;;;;9.88;2.03;;;;;;;;;;4902369;29;20690;-70
2022/05/13 06:11:12;;;;;;;11.13;2.13;;;;;;;;;;4906489;29;20055;-70
2022/05/13 06:13:40;;;;;;;14.15;2.17;;;;;;;;;;4910394;29;20452;-70
2022/05/13 06:16:08;;;;;;;11.77;2.10;;;;;;;;;;4908308;29;20055;-70
2022/05/13 06:18:35;;;;;;;6.15;1.85;;;;;;;;;;4912138;29;20147;-71
2022/05/13 06:21:03;;;;;;;10.80;1.70;;;;;;;;;;4913579;29;20047;-71
2022/05/13 06:23:30;;;;;;;11.77;2.13;;;;;;;;;;4912218;29;20108;-70
2022/05/13 06:25:58;;;;;;;8.38;1.65;;;;;;;;;;4913445;29;20056;-70
2022/05/13 06:28:26;;;;;;;10.60;1.80;;;;;;;;;;4910325;29;20143;-70
2022/05/13 06:30:53;;;;;;;13.02;2.40;;;;;;;;;;4905479;29;20142;-70
2022/05/13 06:33:21;;;;;;;10.88;1.67;;;;;;;;;;4900121;29;20052;-70
2022/05/13 06:35:48;;;;;;;12.35;2.30;;;;;;;;;;4901945;29;20056;-70
2022/05/13 06:38:16;;;;;;;14.07;2.13;;;;;;;;;;4900122;29;20119;-70
2022/05/13 06:40:43;;;;;;;12.70;2.35;;;;;;;;;;4907125;29;20055;-70
2022/05/13 06:43:12;;;;;;;10.32;2.00;;;;;;;;;;4902834;29;20056;-70
2022/05/13 06:45:39;;;;;;;10.75;1.80;;;;;;;;;;4899115;29;20559;-70
2022/05/13 06:48:07;;;;;;;9.90;1.98;;;;;;;;;;4904153;29;20059;-70
2022/05/13 06:50:34;;;;;;;11.45;1.98;;;;;;;;;;4906242;29;20053;-70
2022/05/13 06:53:01;;;;;;;9.52;2.33;;;;;;;;;;4903185;29;20067;-70
2022/05/13 06:55:29;;;;;;;16.05;2.38;;;;;;;;;;4902753;29;20048;-70
2022/05/13 06:57:56;;;;;;;14.38;2.45;;;;;;;;;;4898422;29;20147;-70
2022/05/13 07:00:25;;;;;;;11.80;2.30;;;;;;;;;;4924007;29;20059;-70
2022/05/13 07:02:52;;;;;;;16.55;2.40;;;;;;;;;;4922240;29;20051;-70
2022/05/13 07:05:20;;;;;;;8.48;2.10;;;;;;;;;;4921947;29;20474;-70
2022/05/13 07:07:47;;;;;;;10.95;2.03;;;;;;;;;;4917958;29;20135;-70
2022/05/13 07:10:15;;;;;;;14.10;1.80;;;;;;;;;;4921062;29;20062;-70
2022/05/13 07:12:43;;;;;;;9.82;1.85;;;;;;;;;;4918200;29;20176;-70
2022/05/13 07:15:11;;;;;;;15.20;2.55;;;;;;;;;;4927242;29;20051;-70
2022/05/13 07:17:40;;;;;;;10.77;2.05;;;;;;;;;;4927061;29;20060;-70
2022/05/13 07:20:08;;;;;;;12.38;2.53;;;;;;;;;;4926306;29;20563;-70
2022/05/13 07:22:36;;;;;;;9.60;1.95;;;;;;;;;;4930103;29;20063;-70
2022/05/13 07:25:03;;;;;;;9.77;1.63;;;;;;;;;;4927806;29;20047;-70
2022/05/13 07:27:31;;;;;;;6.90;1.83;;;;;;;;;;4923814;29;20383;-70
2022/05/13 07:29:58;;;;;;;10.73;2.00;;;;;;;;;;4927316;29;20059;-70
2022/05/13 07:32:25;;;;;;;13.52;1.98;;;;;;;;;;4920929;29;20063;-70
2022/05/13 07:34:54;;;;;;;15.23;2.28;;;;;;;;;;4922742;29;20066;-70
2022/05/13 07:37:21;;;;;;;10.18;1.98;;;;;;;;;;4921303;29;20048;-70
2022/05/13 07:42:33;;;;;;;10.38;2.67;;;;;;;;;;4919572;29;20047;-70
2022/05/13 07:45:00;;;;;;;15.07;2.35;;;;;;;;;;4921698;29;20055;-70
2022/05/13 07:47:27;;;;;;;11.77;2.20;;;;;;;;;;4918085;29;20059;-70
2022/05/13 07:49:56;;;;;;;11.55;2.75;;;;;;;;;;4922706;29;20063;-70
2022/05/13 07:52:24;;;;;;;11.05;2.05;;;;;;;;;;4923079;29;20056;-70
2022/05/13 07:54:51;;;;;;;14.88;2.40;;;;;;;;;;4926481;29;20115;-70
2022/05/13 07:57:18;;;;;;;10.13;2.30;;;;;;;;;;4925383;29;20051;-70
2022/05/13 08:02:30;;;;;;;10.20;1.90;;;;;;;;;;4928521;29;20565;-70
2022/05/13 08:04:59;;;;;;;10.30;1.98;;;;;;;;;;4925072;29;20060;-70
2022/05/13 08:07:26;;;;;;;12.80;2.30;;;;;;;;;;4917586;29;20066;-70
2022/05/13 08:09:53;;;;;;;9.10;1.92;;;;;;;;;;4921517;29;20059;-70
2022/05/13 08:12:20;;;;;;;11.60;2.50;;;;;;;;;;4927982;29;20103;-70
2022/05/13 08:14:48;;;;;;;14.10;2.25;;;;;;;;;;4926643;29;20051;-70
2022/05/13 08:17:15;;;;;;;7.22;1.55;;;;;;;;;;4923579;29;20052;-70
2022/05/13 08:19:42;;;;;;;13.43;2.35;;;;;;;;;;4923011;29;20052;-70
2022/05/13 08:22:11;;;;;;;9.18;1.75;;;;;;;;;;4920520;29;20052;-70
2022/05/13 08:24:38;;;;;;;10.40;2.33;;;;;;;;;;4922355;29;20055;-70
2022/05/13 08:27:05;;;;;;;13.98;2.20;;;;;;;;;;4928606;29;20055;-70
2022/05/13 08:29:32;;;;;;;14.85;2.47;;;;;;;;;;4922360;29;20636;-71
2022/05/13 08:32:00;;;;;;;12.68;2.15;;;;;;;;;;4919741;29;20585;-65
2022/05/13 08:34:27;;;;;;;6.85;2.03;;;;;;;;;;4926446;29;20044;-66
2022/05/13 08:36:54;;;;;;;9.98;1.90;;;;;;;;;;4922454;29;20112;-66
2022/05/13 08:39:22;;;;;;;15.05;2.20;;;;;;;;;;4921286;29;20059;-66
2022/05/13 08:41:53;;;;;;;8.05;2.08;;;;;;;;;;4920703;29;20464;-66
2022/05/13 08:44:20;;;;;;;11.52;2.08;;;;;;;;;;4919515;29;20052;-66
2022/05/13 08:46:52;;;;;;;11.20;2.15;;;;;;;;;;4922545;29;20416;-66
2022/05/13 08:49:25;;;;;;;7.22;1.85;;;;;;;;;;4922758;29;20048;-66
2022/05/13 08:51:59;;;;;;;20.58;2.83;;;;;;;;;;4920819;29;20063;-66
2022/05/13 08:54:31;;;;;;;15.73;2.42;;;;;;;;;;4922160;29;20098;-66
2022/05/13 08:57:01;;;;;;;12.77;2.42;;;;;;;;;;4923310;29;20040;-66
2022/05/13 08:59:29;;;;;;;14.80;2.38;;;;;;;;;;4931928;29;20123;-66
2022/05/13 09:01:58;;;;;;;11.75;2.53;;;;;;;;;;4943154;28;20051;-66
2022/05/13 09:04:28;;;;;;;18.42;2.75;;;;;;;;;;4943442;28;20042;-66
2022/05/13 09:06:57;;;;;;;10.57;2.10;;;;;;;;;;4947823;28;20069;-66
2022/05/13 09:09:24;;;;;;;14.68;2.28;;;;;;;;;;4947128;28;20657;-66
2022/05/13 09:11:57;;;;;;;14.23;2.53;;;;;;;;;;4948302;28;20051;-66
2022/05/13 09:14:32;;;;;;;11.68;2.30;;;;;;;;;;4949920;28;20053;-66
2022/05/13 09:17:09;;;;;;;9.20;2.40;;;;;;;;;;4942223;28;20055;-66
2022/05/13 09:19:38;;;;;;;9.52;2.10;;;;;;;;;;4923175;29;20471;-66
2022/05/13 09:22:05;;;;;;;11.27;2.70;;;;;;;;;;4938489;28;20059;-66
2022/05/13 09:24:32;;;;;;;10.93;2.20;;;;;;;;;;4924764;29;20055;-66
2022/05/13 09:27:01;;;;;;;14.55;2.60;;;;;;;;;;4939315;28;20114;-66
2022/05/13 09:29:38;;;;;;;13.65;2.85;;;;;;;;;;4945325;29;20055;-66
2022/05/13 09:32:07;;;;;;;11.57;2.30;;;;;;;;;;4945381;28;20062;-66
2022/05/13 09:34:35;;;;;;;14.85;2.25;;;;;;;;;;4944432;28;20055;-66
2022/05/13 09:37:04;;;;;;;11.77;2.58;;;;;;;;;;4944452;28;20051;-66
2022/05/13 09:39:35;;;;;;;12.30;2.40;;;;;;;;;;4928882;28;20082;-66
2022/05/13 09:42:18;;;;;;;10.55;2.45;;;;;;;;;;4945196;28;20114;-66
2022/05/13 09:44:46;;;;;;;13.55;2.38;;;;;;;;;;4943971;29;20435;-65
2022/05/13 09:47:15;;;;;;;8.32;2.15;;;;;;;;;;4947137;28;20462;-65
2022/05/13 09:49:44;;;;;;;9.85;1.85;;;;;;;;;;4928918;29;20106;-67
2022/05/13 09:52:12;;;;;;;12.80;2.03;;;;;;;;;;4935174;29;20066;-67
2022/05/13 09:54:40;;;;;;;12.77;2.40;;;;;;;;;;4947049;28;20438;-67
2022/05/13 09:57:11;;;;;;;10.88;2.15;;;;;;;;;;4943723;28;20590;-67
2022/05/13 09:59:40;;;;;;;10.93;2.30;;;;;;;;;;4925755;28;20063;-67
2022/05/13 10:02:24;;;;;;;8.07;1.92;;;;;;;;;;4946250;28;20051;-67
2022/05/13 10:04:52;;;;;;;9.20;2.22;;;;;;;;;;4945717;28;20047;-67
2022/05/13 10:07:20;;;;;;;9.05;2.13;;;;;;;;;;4931933;29;20145;-67
2022/05/13 10:15:26;;;;;;;10.65;2.38;;;;;;;;;;4944421;28;20516;-67
2022/05/13 10:17:55;;;;;;;10.20;2.60;;;;;;;;;;4923391;29;20146;-67
2022/05/13 10:20:27;;;;;;;11.27;2.22;;;;;;;;;;4938960;28;20106;-67
2022/05/13 10:22:58;;;;;;;10.95;2.83;;;;;;;;;;4943478;29;20055;-67
2022/05/13 10:25:27;;;;;;;9.68;2.55;;;;;;;;;;4927789;29;20110;-67
2022/05/13 10:27:57;;;;;;;11.43;2.90;;;;;;;;;;4947613;28;20062;-67
2022/05/13 10:30:32;;;;;;;12.27;2.20;;;;;;;;;;4944109;28;20094;-68
2022/05/13 10:33:02;;;;;;;9.55;2.53;;;;;;;;;;4944511;28;20054;-67
2022/05/13 10:35:33;;;;;;;12.88;1.77;;;;;;;;;;4933059;29;20047;-67
2022/05/13 10:38:04;;;;;;;13.35;2.53;;;;;;;;;;4933943;29;20129;-67
2022/05/13 10:40:33;;;;;;;12.73;2.73;;;;;;;;;;4931548;28;20505;-67
2022/05/13 10:43:04;;;;;;;9.80;2.28;;;;;;;;;;4946308;28;20240;-67
2022/05/13 10:45:31;;;;;;;12.48;1.95;;;;;;;;;;4930467;29;20063;-67
2022/05/13 10:48:02;;;;;;;9.73;2.15;;;;;;;;;;4944245;28;20055;-67
2022/05/13 10:50:34;;;;;;;14.10;2.15;;;;;;;;;;4946187;28;20066;-67
2022/05/13 10:53:06;;;;;;;7.72;1.88;;;;;;;;;;4951965;28;20062;-66
2022/05/13 10:55:37;;;;;;;16.80;2.75;;;;;;;;;;4949090;28;20055;-66
2022/05/13 10:58:12;;;;;;;11.18;2.30;;;;;;;;;;4945316;28;20047;-66
2022/05/13 11:00:42;;;;;;;9.65;2.38;;;;;;;;;;4935659;28;20059;-66
2022/05/13 11:03:22;;;;;;;12.43;2.30;;;;;;;;;;4939272;28;20382;-66
2022/05/13 11:05:57;;;;;;;14.73;2.72;;;;;;;;;;4948357;28;20526;-66
2022/05/13 11:08:30;;;;;;;9.95;2.50;;;;;;;;;;4923591;29;20051;-66
2022/05/13 11:11:01;;;;;;;12.57;2.67;;;;;;;;;;4951444;28;20609;-66
2022/05/13 11:13:37;;;;;;;16.45;2.83;;;;;;;;;;4947484;28;20055;-66
2022/05/13 11:16:09;;;;;;;12.27;2.35;;;;;;;;;;4947171;28;20055;-66
2022/05/13 11:18:41;;;;;;;13.43;3.05;;;;;;;;;;4947199;28;20453;-66
2022/05/13 11:21:14;;;;;;;14.90;3.05;;;;;;;;;;4942644;29;20130;-66
2022/05/13 11:25:54;;;;;;;9.13;2.13;;;;;;;;;;4940324;28;20055;-66
2022/05/13 11:26:38;;;;;;;9.55;2.45;;;;;;;;;;4942768;28;20059;-66
2022/05/13 11:29:09;;;;;;;10.77;2.30;;;;;;;;;;4950571;28;20090;-66
2022/05/13 11:31:44;;;;;;;13.23;3.35;;;;;;;;;;4947486;28;20485;-66
2022/05/13 11:34:16;;;;;;;11.32;2.30;;;;;;;;;;4923138;29;20055;-66
2022/05/13 11:36:46;;;;;;;13.05;2.58;;;;;;;;;;4941779;28;20549;-66
2022/05/13 11:39:25;;;;;;;10.98;2.67;;;;;;;;;;4924943;29;20063;-66
2022/05/13 11:42:06;;;;;;;12.45;2.60;;;;;;;;;;4943282;28;20051;-66
2022/05/13 11:44:41;;;;;;;12.50;3.03;;;;;;;;;;4942862;29;20570;-66
2022/05/13 11:47:11;;;;;;;14.65;2.45;;;;;;;;;;4953280;28;20055;-66
2022/05/13 11:49:40;;;;;;;12.70;2.63;;;;;;;;;;4944120;28;20973;-67
2022/05/13 11:52:22;;;;;;;10.07;2.45;;;;;;;;;;4948068;28;20478;-67
2022/05/13 11:54:49;;;;;;;11.05;2.50;;;;;;;;;;4947900;28;20115;-67
2022/05/13 11:57:23;;;;;;;13.80;2.85;;;;;;;;;;4946932;29;20047;-67
2022/05/13 11:59:52;;;;;;;14.50;2.55;;;;;;;;;;4929961;28;20058;-67
2022/05/13 12:02:32;;;;;;;10.80;2.50;;;;;;;;;;4944652;28;20368;-67
2022/05/13 12:05:11;;;;;;;11.07;2.55;;;;;;;;;;4929427;29;20055;-66
2022/05/13 12:07:40;;;;;;;12.10;2.20;;;;;;;;;;4946446;28;20051;-66
2022/05/13 12:10:08;;;;;;;11.57;2.33;;;;;;;;;;4928623;29;20055;-66
2022/05/13 12:12:49;;;;;;;8.10;2.08;;;;;;;;;;4943070;28;20090;-66
2022/05/13 12:15:27;;;;;;;14.40;2.55;;;;;;;;;;4938049;28;20753;-66
2022/05/13 12:17:59;;;;;;;8.90;2.50;;;;;;;;;;4941473;29;20051;-66
2022/05/13 12:20:33;;;;;;;11.15;2.67;;;;;;;;;;4948025;28;20058;-66
2022/05/13 12:23:02;;;;;;;10.38;2.63;;;;;;;;;;4928433;29;20051;-66
2022/05/13 12:26:00;;;;;;;10.77;2.40;;;;;;;;;;4954145;28;20497;-66
2022/05/13 12:28:39;;;;;;;21.60;2.50;;;;;;;;;;4891794;29;20052;-66
2022/05/13 12:31:20;;;;;;;8.35;2.45;;;;;;;;;;4935136;28;20062;-66
2022/05/13 12:37:33;;;;;;;11.10;2.10;;;;;;;;;;4946069;28;20052;-66
2022/05/13 12:39:44;;;;;;;11.93;2.45;;;;;;;;;;4941342;28;20198;-66
2022/05/13 12:42:12;;;;;;;16.83;2.90;;;;;;;;;;4945842;28;20442;-66
2022/05/13 12:44:42;;;;;;;11.80;2.80;;;;;;;;;;4935500;28;20082;-66
2022/05/13 12:47:27;;;;;;;14.15;2.40;;;;;;;;;;4932523;29;20082;-66
2022/05/13 12:49:56;;;;;;;15.07;2.50;;;;;;;;;;4948282;29;20492;-66
2022/05/13 12:52:26;;;;;;;8.30;2.33;;;;;;;;;;4948819;29;20590;-66
2022/05/13 12:54:54;;;;;;;12.73;2.35;;;;;;;;;;4932897;28;20133;-66
2022/05/13 12:57:24;;;;;;;10.52;2.38;;;;;;;;;;4927979;29;20062;-66
2022/05/13 12:59:53;;;;;;;12.32;2.65;;;;;;;;;;4945500;28;20052;-66
2022/05/13 13:02:21;;;;;;;9.55;2.45;;;;;;;;;;4949574;28;20055;-66
2022/05/13 13:04:53;;;;;;;11.02;2.53;;;;;;;;;;4951579;28;20054;-66
2022/05/13 13:07:21;;;;;;;11.80;2.63;;;;;;;;;;4950950;28;20427;-66
2022/05/13 13:09:50;;;;;;;12.60;3.28;;;;;;;;;;4950230;28;20587;-66
2022/05/13 13:12:20;;;;;;;10.75;2.50;;;;;;;;;;4947995;28;20067;-67
2022/05/13 13:14:49;;;;;;;10.60;2.72;;;;;;;;;;4951383;28;20055;-67
2022/05/13 13:17:20;;;;;;;12.90;2.55;;;;;;;;;;4934396;28;20062;-67
2022/05/13 13:19:49;;;;;;;9.43;2.63;;;;;;;;;;4927086;29;20163;-67
2022/05/13 13:22:20;;;;;;;10.38;2.65;;;;;;;;;;4934261;28;20058;-67
2022/05/13 13:24:48;;;;;;;9.55;2.53;;;;;;;;;;4950307;28;20375;-66
2022/05/13 13:27:16;;;;;;;11.60;2.60;;;;;;;;;;4953746;28;20110;-66
2022/05/13 13:29:44;;;;;;;11.98;2.55;;;;;;;;;;4946448;28;20051;-66
2022/05/13 13:32:14;;;;;;;19.60;3.33;;;;;;;;;;4948802;28;20062;-66
2022/05/13 13:34:42;;;;;;;15.35;3.45;;;;;;;;;;4946883;28;20110;-66
2022/05/13 13:37:12;;;;;;;10.43;2.47;;;;;;;;;;4957141;28;20062;-66
2022/05/13 13:39:40;;;;;;;14.27;3.08;;;;;;;;;;4947884;28;20058;-66
2022/05/13 13:42:08;;;;;;;10.85;2.90;;;;;;;;;;4934112;29;20102;-66
2022/05/13 13:44:35;;;;;;;16.17;3.05;;;;;;;;;;4950473;28;20499;-66
2022/05/13 13:47:05;;;;;;;17.00;3.63;;;;;;;;;;4934220;28;20102;-66
2022/05/13 13:49:33;;;;;;;18.05;3.95;;;;;;;;;;4950620;28;20082;-66
2022/05/13 13:52:02;;;;;;;18.00;3.60;;;;;;;;;;4952008;28;20051;-66
2022/05/13 13:54:38;;;;;;;12.95;2.95;;;;;;;;;;4928196;29;20063;-66
2022/05/13 13:57:17;;;;;;;13.60;3.42;;;;;;;;;;4933340;29;20110;-66
2022/05/13 13:59:51;;;;;;;16.10;3.42;;;;;;;;;;4949832;28;20134;-66
2022/05/13 14:02:31;;;;;;;12.93;3.05;;;;;;;;;;4947690;28;20695;-66
2022/05/13 14:04:58;;;;;;;11.15;2.72;;;;;;;;;;4946480;28;20611;-66
2022/05/13 14:07:26;;;;;;;14.57;2.83;;;;;;;;;;4933193;28;20063;-66
2022/05/13 14:09:57;;;;;;;16.63;3.20;;;;;;;;;;4930565;29;20121;-66
2022/05/13 14:12:26;;;;;;;12.77;3.25;;;;;;;;;;4948880;28;20123;-66
2022/05/13 14:14:56;;;;;;;15.32;3.13;;;;;;;;;;4931654;29;20074;-66
2022/05/13 14:17:26;;;;;;;13.07;3.00;;;;;;;;;;4945942;28;20557;-66
2022/05/13 14:19:54;;;;;;;13.07;3.17;;;;;;;;;;4948590;28;20055;-66
2022/05/13 14:22:21;;;;;;;12.43;3.00;;;;;;;;;;4940221;28;20047;-66
2022/05/13 14:24:49;;;;;;;14.38;3.03;;;;;;;;;;4946944;28;20102;-66
2022/05/13 14:27:23;;;;;;;12.80;3.15;;;;;;;;;;4946231;28;20047;-66
2022/05/13 14:29:50;;;;;;;13.75;3.20;;;;;;;;;;4946995;28;20138;-66
2022/05/13 14:32:20;;;;;;;12.02;2.75;;;;;;;;;;4948681;28;20059;-66
2022/05/13 14:34:59;;;;;;;9.18;2.83;;;;;;;;;;4930463;28;20063;-66
2022/05/13 14:37:31;;;;;;;10.85;2.58;;;;;;;;;;4948121;28;20475;-66
2022/05/13 14:39:58;;;;;;;9.20;2.80;;;;;;;;;;4950510;28;20126;-66
2022/05/13 14:42:31;;;;;;;14.95;3.53;;;;;;;;;;4948148;28;20303;-69
2022/05/13 14:44:59;;;;;;;17.77;3.78;;;;;;;;;;4931162;29;20142;-66
2022/05/13 14:47:37;;;;;;;11.95;2.80;;;;;;;;;;4948866;28;20051;-66
2022/05/13 14:50:16;;;;;;;13.60;2.92;;;;;;;;;;4932540;29;21119;-66
2022/05/13 14:52:46;;;;;;;12.38;3.20;;;;;;;;;;4948736;28;20047;-66
2022/05/13 14:55:16;;;;;;;13.18;3.40;;;;;;;;;;4945677;28;20051;-66
2022/05/13 14:57:45;;;;;;;12.98;3.30;;;;;;;;;;4944477;28;20214;-66
2022/05/13 15:00:17;;;;;;;8.48;2.55;;;;;;;;;;4947175;28;20059;-66
2022/05/13 15:02:48;;;;;;;12.35;3.38;;;;;;;;;;4949185;28;20406;-66
2022/05/13 15:05:19;;;;;;;16.48;3.58;;;;;;;;;;4954422;28;20082;-66
2022/05/13 15:07:46;;;;;;;10.93;2.70;;;;;;;;;;4950755;28;20118;-67
2022/05/13 15:10:21;;;;;;;12.20;3.20;;;;;;;;;;4952819;28;20051;-66
2022/05/13 15:12:49;;;;;;;13.82;3.60;;;;;;;;;;4949931;28;20486;-66
2022/05/13 15:15:17;;;;;;;17.17;3.35;;;;;;;;;;4950255;28;20058;-66